Time;durP1;ratioP1;P1;durP2;ratioP2;P2;SDS_P1;SDS_P2;PMS_P1;PMS_P2;Temp;Humidity;BMP_temperature;BMP_pressure;BME280_temperature;BME280_humidity;BME280_pressure;Samples;Min_cycle;Max_cycle;Signal;HPM_P1;HPM_P2
2022/10/10 00:00:22;;;;;;;9.73;5.25;;;;;;;17.81;69.06;101577.22;2086728;28;20447;-72
2022/10/10 00:01:45;;;;;;;6.97;5.13;;;;;;;17.79;69.13;101577.22;2097796;28;20056;-73
2022/10/10 00:03:07;;;;;;;9.60;5.60;;;;;;;17.80;69.35;101581.66;2087429;28;20049;-72
2022/10/10 00:04:30;;;;;;;7.95;5.18;;;;;;;17.82;69.57;101582.56;2099486;28;20535;-73
2022/10/10 00:05:52;;;;;;;8.35;5.20;;;;;;;17.83;69.69;101579.00;2085901;28;20479;-73
2022/10/10 00:07:14;;;;;;;9.52;5.72;;;;;;;17.84;69.87;101575.44;2082786;28;20060;-72
2022/10/10 00:08:36;;;;;;;11.32;5.78;;;;;;;17.84;69.83;101583.47;2083119;28;20037;-72
2022/10/10 00:09:58;;;;;;;;;;;;;;;17.79;69.68;101581.66;2090329;28;20059;-72
2022/10/10 00:11:22;;;;;;;9.50;5.15;;;;;;;17.77;69.81;101583.47;2092409;28;19920;-72
2022/10/10 00:12:45;;;;;;;10.98;5.45;;;;;;;17.75;69.58;101583.47;2084857;28;20486;-74
2022/10/10 00:14:08;;;;;;;8.88;5.10;;;;;;;17.75;69.61;101579.88;2080427;28;20071;-73
2022/10/10 00:15:31;;;;;;;9.05;4.95;;;;;;;17.75;69.83;101587.91;2084262;28;20059;-73
2022/10/10 00:16:53;;;;;;;10.38;5.53;;;;;;;17.77;69.97;101589.69;2084482;28;20405;-73
2022/10/10 00:18:16;;;;;;;8.70;5.32;;;;;;;17.78;70.38;101590.59;2082886;28;20068;-73
2022/10/10 00:19:37;;;;;;;8.10;4.57;;;;;;;17.82;70.70;101587.91;2091088;28;20044;-73
2022/10/10 00:21:01;;;;;;;8.65;5.53;;;;;;;17.87;70.56;101585.22;2092576;28;20132;-72
2022/10/10 00:22:22;;;;;;;9.77;5.32;;;;;;;17.88;70.62;101595.03;2093493;28;20045;-72
2022/10/10 00:23:44;;;;;;;8.90;5.55;;;;;;;17.88;70.50;101587.91;2092372;28;20135;-73
2022/10/10 00:25:09;;;;;;;7.90;5.10;;;;;;;17.90;70.59;101585.22;2093980;28;20045;-72
2022/10/10 00:26:30;;;;;;;9.15;5.03;;;;;;;17.90;70.53;101587.91;2090353;28;20184;-73
2022/10/10 00:27:52;;;;;;;7.13;4.80;;;;;;;17.87;70.32;101582.56;2088066;28;20385;-72
2022/10/10 00:29:16;;;;;;;8.18;4.97;;;;;;;17.88;70.50;101581.66;2097759;28;20130;-72
2022/10/10 00:30:38;;;;;;;9.50;5.10;;;;;;;17.87;70.59;101587.88;2085630;28;20040;-72
2022/10/10 00:32:01;;;;;;;9.00;5.20;;;;;;;17.84;70.36;101585.25;2099275;28;20089;-73
2022/10/10 00:33:22;;;;;;;10.88;5.50;;;;;;;17.83;70.46;101584.34;2078522;28;20370;-73
2022/10/10 00:34:45;;;;;;;9.40;5.18;;;;;;;17.84;70.61;101586.13;2078469;28;20056;-73
2022/10/10 00:36:06;;;;;;;9.52;5.07;;;;;;;17.89;70.88;101580.78;2089753;28;20041;-73
2022/10/10 00:37:29;;;;;;;6.90;4.95;;;;;;;17.88;70.61;101576.31;2083779;28;20044;-72
2022/10/10 00:38:50;;;;;;;8.30;4.97;;;;;;;17.88;70.54;101585.22;2090359;28;20056;-72
2022/10/10 00:40:15;;;;;;;7.18;5.32;;;;;;;17.91;70.83;101587.03;2092567;28;20520;-73
2022/10/10 00:41:38;;;;;;;7.18;5.20;;;;;;;17.92;70.65;101591.44;2092865;28;20458;-73
2022/10/10 00:42:59;;;;;;;8.98;5.55;;;;;;;17.93;70.68;101585.22;2077024;28;20053;-73
2022/10/10 00:44:23;;;;;;;9.20;5.28;;;;;;;17.93;70.63;101593.22;2080966;28;20052;-72
2022/10/10 00:45:46;;;;;;;8.77;5.10;;;;;;;17.96;70.87;101595.03;2082076;28;20549;-73
2022/10/10 00:47:09;;;;;;;10.15;5.15;;;;;;;17.99;70.78;101590.53;2093612;28;20583;-73
2022/10/10 00:48:34;;;;;;;9.23;5.15;;;;;;;18.05;70.83;101595.88;2092235;28;20699;-73
2022/10/10 00:49:56;;;;;;;8.27;5.07;;;;;;;18.09;71.01;101597.66;2079304;28;20160;-73
2022/10/10 00:51:20;;;;;;;7.60;4.95;;;;;;;18.13;71.03;101594.09;2090673;28;20052;-73
2022/10/10 00:52:41;;;;;;;7.65;5.28;;;;;;;18.17;71.20;101595.88;2091160;28;20044;-73
2022/10/10 00:54:09;;;;;;;8.05;4.82;;;;;;;18.19;71.06;101593.19;2083988;28;20489;-73
2022/10/10 00:55:30;;;;;;;10.02;5.32;;;;;;;18.11;70.72;101595.91;2083603;28;20037;-73
2022/10/10 00:56:57;;;;;;;10.98;5.13;;;;;;;18.08;70.83;101590.53;2097298;28;20135;-73
2022/10/10 00:58:20;;;;;;;7.30;5.40;;;;;;;18.04;70.88;101593.22;2087056;28;20049;-73
2022/10/10 00:59:47;;;;;;;8.80;4.88;;;;;;;18.05;71.00;101595.03;2092534;28;20076;-73
2022/10/10 01:01:08;;;;;;;7.65;4.97;;;;;;;18.05;71.27;101593.19;2101233;28;20056;-73
2022/10/10 01:02:31;;;;;;;8.10;5.32;;;;;;;18.05;71.46;101595.03;2086723;28;20045;-72
2022/10/10 01:03:57;;;;;;;10.32;5.32;;;;;;;18.06;71.26;101592.31;2084143;28;20513;-73
2022/10/10 01:05:18;;;;;;;10.00;5.22;;;;;;;18.08;71.40;101592.31;2090198;28;20048;-74
2022/10/10 01:06:41;;;;;;;9.70;5.10;;;;;;;18.08;71.41;101595.88;2084221;28;20037;-73
2022/10/10 01:08:05;;;;;;;8.48;5.40;;;;;;;18.12;71.59;101596.75;2092054;28;20055;-73
2022/10/10 01:09:30;;;;;;;10.93;5.93;;;;;;;18.14;71.72;101593.19;2083882;28;20072;-73
2022/10/10 01:11:05;;;;;;;9.65;5.20;;;;;;;18.12;71.39;101591.41;2092397;28;20048;-73
2022/10/10 01:12:36;;;;;;;7.95;4.80;;;;;;;18.02;71.25;101597.69;2085210;28;20110;-73
2022/10/10 01:14:09;;;;;;;8.52;5.53;;;;;;;18.03;71.57;101592.34;2082313;28;20045;-73
2022/10/10 01:15:44;;;;;;;7.90;5.53;;;;;;;18.07;71.81;101594.09;2092662;28;20082;-72
2022/10/10 01:17:13;;;;;;;7.40;4.93;;;;;;;18.12;71.78;101594.97;2085873;28;20045;-72
2022/10/10 01:18:46;;;;;;;16.02;6.72;;;;;;;18.13;71.63;101599.44;2084101;28;20205;-73
2022/10/10 01:20:50;;;;;;;8.98;5.25;;;;;;;18.12;71.42;101589.63;2089721;28;21820;-73
2022/10/10 01:22:26;;;;;;;8.60;4.63;;;;;;;18.15;71.72;101589.63;2103638;28;20047;-73
2022/10/10 01:24:24;;;;;;;7.53;4.40;;;;;;;18.21;71.84;101580.72;2086995;28;20049;-72
2022/10/10 01:26:00;;;;;;;9.60;5.63;;;;;;;18.23;71.81;101587.84;2103456;28;20051;-73
2022/10/10 01:27:30;;;;;;;9.52;5.10;;;;;;;18.19;71.69;101591.41;2087336;28;20088;-72
2022/10/10 01:28:59;;;;;;;11.75;5.10;;;;;;;18.17;71.68;101598.56;2092647;28;20052;-73
2022/10/10 01:30:23;;;;;;;11.70;4.93;;;;;;;18.18;71.82;101599.44;2086165;28;20049;-72
2022/10/10 01:31:47;;;;;;;10.93;4.97;;;;;;;18.20;72.09;101597.63;2096589;28;20048;-72
2022/10/10 01:33:15;;;;;;;11.02;4.75;;;;;;;18.21;71.78;101597.63;2086889;28;20068;-73
2022/10/10 01:34:45;;;;;;;8.90;5.25;;;;;;;18.24;72.01;101596.75;2083789;28;20041;-73
2022/10/10 01:36:17;;;;;;;9.38;5.07;;;;;;;18.22;71.91;101607.44;2092917;28;20087;-73
2022/10/10 01:37:46;;;;;;;8.68;5.43;;;;;;;18.24;71.78;101600.31;2093804;28;20047;-72
2022/10/10 01:39:15;;;;;;;7.85;4.95;;;;;;;18.27;71.92;101596.72;2077562;28;20127;-72
2022/10/10 01:40:42;;;;;;;8.60;5.25;;;;;;;18.28;71.91;101596.72;2077827;28;20037;-72
2022/10/10 01:42:09;;;;;;;8.05;5.22;;;;;;;18.31;71.75;101596.72;2085508;28;20144;-72
2022/10/10 01:43:33;;;;;;;10.27;4.57;;;;;;;18.33;71.79;101591.38;2085776;28;20053;-73
2022/10/10 01:44:56;;;;;;;10.20;5.55;;;;;;;18.41;71.70;101594.91;2101777;28;20062;-73
2022/10/10 01:46:20;;;;;;;10.32;4.53;;;;;;;18.45;71.87;101596.66;2092518;28;20069;-72
2022/10/10 01:47:42;;;;;;;10.15;5.28;;;;;;;18.47;71.52;101594.88;2084550;28;20054;-73
2022/10/10 01:49:04;;;;;;;9.23;5.30;;;;;;;18.49;71.63;101594.91;2076694;28;20041;-73
2022/10/10 01:50:26;;;;;;;8.43;5.03;;;;;;;18.49;71.55;101605.59;2080508;28;20472;-73
2022/10/10 01:52:01;;;;;;;;;;;;;;;18.49;71.53;101597.56;2097559;28;20439;-73
2022/10/10 01:53:29;;;;;;;9.18;5.00;;;;;;;18.54;71.47;101601.09;2087272;28;19921;-73
2022/10/10 01:55:02;;;;;;;10.15;5.25;;;;;;;18.54;71.12;101601.09;2084928;28;20098;-73
2022/10/10 01:56:35;;;;;;;7.50;5.03;;;;;;;18.54;71.38;101595.75;2087440;28;20479;-73
2022/10/10 01:58:11;;;;;;;7.88;4.70;;;;;;;18.53;71.11;101599.31;2094656;28;20037;-73
2022/10/10 01:59:45;;;;;;;9.65;4.80;;;;;;;18.52;71.07;101598.44;2092519;28;20092;-73
2022/10/10 02:01:14;;;;;;;10.65;5.38;;;;;;;18.53;71.10;101600.22;2093137;28;20047;-73
2022/10/10 02:02:48;;;;;;;9.00;5.03;;;;;;;18.53;71.16;101600.22;2086662;28;20140;-73
2022/10/10 02:04:17;;;;;;;8.27;5.00;;;;;;;18.54;71.15;101598.44;2084428;28;20569;-73
2022/10/10 02:05:43;;;;;;;11.07;5.40;;;;;;;18.57;71.13;101601.16;2083036;28;20053;-73
2022/10/10 02:07:11;;;;;;;7.53;4.53;;;;;;;18.58;71.16;101597.53;2082069;28;20037;-73
2022/10/10 02:08:36;;;;;;;9.25;5.75;;;;;;;18.58;71.10;101598.44;2085653;28;20505;-73
2022/10/10 02:10:01;;;;;;;9.10;5.53;;;;;;;18.58;71.13;101603.78;2090661;28;20714;-73
2022/10/10 02:11:26;;;;;;;9.05;5.82;;;;;;;18.55;71.06;101601.13;2094576;28;20059;-74
2022/10/10 02:12:51;;;;;;;6.82;4.65;;;;;;;18.54;71.27;101596.66;2089580;28;20049;-73
2022/10/10 02:14:18;;;;;;;7.10;5.05;;;;;;;18.57;71.14;101595.78;2093583;28;20047;-73
2022/10/10 02:15:45;;;;;;;8.93;5.20;;;;;;;18.60;71.34;101603.78;2093188;28;20041;-73
2022/10/10 02:17:13;;;;;;;8.85;4.70;;;;;;;18.59;71.15;101599.34;2078836;28;20049;-73
2022/10/10 02:18:35;;;;;;;8.73;5.00;;;;;;;18.59;71.01;101602.00;2098606;28;20044;-73
2022/10/10 02:19:59;;;;;;;11.95;5.70;;;;;;;18.56;70.91;101600.25;2091628;28;20053;-72
2022/10/10 02:21:24;;;;;;;8.27;4.90;;;;;;;18.58;70.93;101605.56;2078055;28;20080;-73
2022/10/10 02:22:48;;;;;;;13.18;5.22;;;;;;;18.57;71.04;101603.81;2096994;28;20040;-73
2022/10/10 02:24:12;;;;;;;9.27;4.63;;;;;;;18.58;70.97;101608.25;2094224;28;20075;-73
2022/10/10 02:25:39;;;;;;;7.40;5.10;;;;;;;18.59;71.08;101600.22;2096095;28;20558;-73
2022/10/10 02:27:05;;;;;;;8.80;5.53;;;;;;;18.57;70.84;101606.50;2095466;28;20086;-73
2022/10/10 02:28:38;;;;;;;13.82;5.68;;;;;;;18.52;71.06;101598.44;2102376;28;20584;-73
2022/10/10 02:30:01;;;;;;;8.73;5.55;;;;;;;18.49;71.05;101593.09;2095727;28;20068;-72
2022/10/10 02:31:31;;;;;;;10.35;5.18;;;;;;;18.55;71.22;101603.81;2085515;28;20102;-72
2022/10/10 02:33:00;;;;;;;8.00;5.20;;;;;;;18.54;71.09;101604.66;2090355;28;20048;-73
2022/10/10 02:34:26;;;;;;;7.32;4.78;;;;;;;18.54;71.12;101603.78;2096940;28;20083;-73
2022/10/10 02:35:52;;;;;;;9.30;4.75;;;;;;;18.52;70.96;101602.88;2087878;28;20065;-73
2022/10/10 02:37:16;;;;;;;9.57;5.05;;;;;;;18.50;71.08;101596.69;2091932;28;20052;-72
2022/10/10 02:38:38;;;;;;;8.77;4.95;;;;;;;18.47;71.01;101602.03;2093945;28;20477;-73
2022/10/10 02:40:03;;;;;;;8.00;5.10;;;;;;;18.45;71.03;101588.66;2094472;28;20143;-73
2022/10/10 02:41:24;;;;;;;8.13;5.13;;;;;;;18.44;71.03;101600.25;2097214;28;20064;-72
2022/10/10 02:42:49;;;;;;;8.60;4.78;;;;;;;18.44;70.96;101594.91;2093158;28;20707;-73
2022/10/10 02:44:12;;;;;;;6.57;4.55;;;;;;;18.42;70.91;101596.69;2101315;28;20060;-73
2022/10/10 02:45:35;;;;;;;8.50;5.22;;;;;;;18.42;70.75;101598.47;2097153;28;20140;-73
2022/10/10 02:46:57;;;;;;;8.45;4.93;;;;;;;18.40;70.72;101598.47;2095588;28;20077;-73
2022/10/10 02:48:24;;;;;;;7.28;4.70;;;;;;;18.39;70.56;101602.03;2087892;28;20528;-72
2022/10/10 02:49:46;;;;;;;16.23;5.30;;;;;;;18.38;70.58;101602.94;2091855;28;20048;-73
2022/10/10 02:51:11;;;;;;;7.07;4.45;;;;;;;18.36;70.68;101602.06;2092181;28;20512;-72
2022/10/10 02:52:32;;;;;;;8.18;4.63;;;;;;;18.35;70.76;101599.38;2094758;28;20049;-72
2022/10/10 02:53:55;;;;;;;6.82;4.78;;;;;;;18.33;70.49;101613.66;2085359;28;20052;-72
2022/10/10 02:55:16;;;;;;;9.02;5.25;;;;;;;18.37;70.56;101610.97;2091214;28;20048;-73
2022/10/10 02:56:39;;;;;;;6.50;4.50;;;;;;;18.41;70.60;101605.59;2093113;28;20052;-72
2022/10/10 02:58:01;;;;;;;8.82;5.07;;;;;;;18.40;70.29;101610.94;2100080;28;20050;-70
2022/10/10 02:59:23;;;;;;;9.75;5.13;;;;;;;18.38;70.22;101613.63;2082397;28;21510;-70
2022/10/10 03:00:46;;;;;;;8.68;5.28;;;;;;;18.36;70.24;101604.75;2090780;28;20086;-70
2022/10/10 03:02:08;;;;;;;7.55;4.80;;;;;;;18.35;70.37;101615.44;2094374;28;20653;-70
2022/10/10 03:03:32;;;;;;;7.40;4.85;;;;;;;18.33;70.40;101615.44;2082359;28;20047;-70
2022/10/10 03:04:55;;;;;;;8.55;4.80;;;;;;;18.27;70.45;101608.31;2083828;28;20055;-70
2022/10/10 03:06:18;;;;;;;7.78;4.95;;;;;;;18.26;70.51;101616.34;2097435;28;20040;-70
2022/10/10 03:07:39;;;;;;;7.18;5.03;;;;;;;18.24;70.69;101616.34;2086578;28;20472;-71
2022/10/10 03:09:02;;;;;;;8.63;4.75;;;;;;;18.23;70.62;101613.69;2085790;28;20094;-70
2022/10/10 03:10:23;;;;;;;7.22;4.82;;;;;;;18.22;70.77;101612.78;2099163;28;20138;-71
2022/10/10 03:11:45;;;;;;;9.93;4.65;;;;;;;18.25;70.72;101614.53;2087474;28;20071;-70
2022/10/10 03:13:07;;;;;;;8.95;5.00;;;;;;;18.26;70.63;101616.34;2100861;28;20121;-71
2022/10/10 03:14:30;;;;;;;10.00;4.57;;;;;;;18.26;70.46;101616.34;2099082;28;20036;-70
2022/10/10 03:15:52;;;;;;;9.90;4.70;;;;;;;18.24;70.37;101619.03;2088874;28;20151;-70
2022/10/10 03:17:14;;;;;;;7.00;5.47;;;;;;;18.23;70.30;101616.34;2091372;28;20051;-71
2022/10/10 03:18:38;;;;;;;7.95;4.88;;;;;;;18.24;70.25;101615.47;2085947;28;20049;-72
2022/10/10 03:20:00;;;;;;;7.28;4.78;;;;;;;18.22;70.35;101614.56;2083950;28;20106;-73
2022/10/10 03:21:22;;;;;;;9.38;4.65;;;;;;;18.21;70.24;101619.03;2093248;28;20059;-72
2022/10/10 03:22:43;;;;;;;9.38;5.32;;;;;;;18.19;70.08;101615.44;2096856;28;20113;-73
2022/10/10 03:24:06;;;;;;;10.05;4.93;;;;;;;18.19;70.06;101609.22;2078202;28;20049;-73
2022/10/10 03:25:29;;;;;;;10.02;4.70;;;;;;;18.17;69.84;101614.59;2089086;28;20113;-73
2022/10/10 03:26:52;;;;;;;8.43;5.00;;;;;;;18.17;70.13;101622.59;2085759;28;20049;-72
2022/10/10 03:28:13;;;;;;;10.50;5.22;;;;;;;18.17;70.02;101619.03;2099278;28;20438;-73
2022/10/10 03:29:36;;;;;;;12.95;5.53;;;;;;;18.16;69.89;101620.81;2083101;28;20485;-73
2022/10/10 03:30:57;;;;;;;9.32;5.53;;;;;;;18.18;69.90;101621.69;2098273;28;20045;-73
2022/10/10 03:32:20;;;;;;;6.97;4.88;;;;;;;18.20;70.06;101619.91;2090934;28;20054;-73
2022/10/10 03:33:46;;;;;;;7.57;5.28;;;;;;;18.22;70.09;101623.47;2075448;28;20141;-73
2022/10/10 03:35:10;;;;;;;8.45;4.97;;;;;;;18.22;69.83;101617.25;2097700;28;20135;-73
2022/10/10 03:36:33;;;;;;;13.07;5.43;;;;;;;18.21;69.71;101618.13;2098222;28;20048;-73
2022/10/10 03:37:56;;;;;;;8.98;5.90;;;;;;;18.20;69.75;101619.00;2085362;28;20083;-73
2022/10/10 03:39:19;;;;;;;9.60;5.28;;;;;;;18.18;69.85;101621.69;2098822;28;20055;-72
2022/10/10 03:40:43;;;;;;;9.38;4.40;;;;;;;18.18;69.92;101619.00;2082139;28;20632;-72
2022/10/10 03:42:06;;;;;;;9.90;5.47;;;;;;;18.17;70.20;101625.28;2085921;28;20044;-73
2022/10/10 03:43:27;;;;;;;8.45;4.82;;;;;;;18.17;70.11;101621.72;2084683;28;20065;-73
2022/10/10 03:44:50;;;;;;;7.03;4.80;;;;;;;18.15;70.12;101624.38;2087587;28;20044;-73
2022/10/10 03:46:11;;;;;;;9.13;5.00;;;;;;;18.15;70.18;101628.84;2085345;28;20075;-73
2022/10/10 03:47:34;;;;;;;10.20;4.82;;;;;;;18.15;70.27;101624.38;2082177;28;20077;-73
2022/10/10 03:49:00;;;;;;;8.57;4.97;;;;;;;18.14;70.36;101627.94;2100033;28;20511;-73
2022/10/10 03:50:21;;;;;;;9.30;5.25;;;;;;;18.16;70.18;101627.94;2087324;28;20041;-72
2022/10/10 03:51:44;;;;;;;9.98;5.05;;;;;;;18.15;70.24;101628.84;2097708;28;20052;-73
2022/10/10 03:53:07;;;;;;;10.68;5.05;;;;;;;18.15;70.35;101621.72;2080400;28;20057;-73
2022/10/10 03:54:29;;;;;;;8.27;4.88;;;;;;;18.15;70.21;101628.84;2078622;28;20047;-73
2022/10/10 03:55:53;;;;;;;10.20;4.80;;;;;;;18.15;70.25;101632.41;2090670;28;20133;-73
2022/10/10 03:57:16;;;;;;;9.15;5.50;;;;;;;18.14;70.44;101629.72;2091240;28;20143;-73
2022/10/10 03:58:39;;;;;;;11.40;5.30;;;;;;;18.15;70.44;101629.72;2077383;28;20045;-73
2022/10/10 04:00:01;;;;;;;8.27;5.10;;;;;;;18.17;70.64;101624.38;2089083;28;20056;-73
2022/10/10 04:01:22;;;;;;;8.57;5.45;;;;;;;18.17;70.62;101630.63;2095928;28;20160;-73
2022/10/10 04:02:45;;;;;;;10.88;5.20;;;;;;;18.16;70.53;101627.94;2086668;28;20390;-70
2022/10/10 04:04:09;;;;;;;10.40;5.57;;;;;;;18.16;70.66;101631.50;2074536;28;20175;-71
2022/10/10 04:05:33;;;;;;;8.85;5.40;;;;;;;18.16;70.84;101619.94;2089270;28;20041;-71
2022/10/10 04:06:55;;;;;;;12.98;7.07;;;;;;;18.15;70.88;101624.38;2092329;28;20041;-70
2022/10/10 04:08:17;;;;;;;9.93;7.78;;;;;;;18.16;70.83;101625.28;2090034;28;20067;-72
2022/10/10 04:09:41;;;;;;;16.27;11.50;;;;;;;18.17;70.86;101627.06;2084493;28;20045;-73
2022/10/10 04:11:02;;;;;;;13.63;9.63;;;;;;;18.15;70.92;101629.72;2089684;28;20393;-73
2022/10/10 04:12:25;;;;;;;15.45;12.90;;;;;;;18.15;70.91;101627.06;2093405;28;20028;-73
2022/10/10 04:13:46;;;;;;;18.67;14.50;;;;;;;18.17;70.87;101627.94;2083053;28;20140;-72
2022/10/10 04:15:10;;;;;;;16.10;12.25;;;;;;;18.18;70.77;101629.69;2090005;28;20435;-73
2022/10/10 04:16:33;;;;;;;19.70;14.77;;;;;;;18.18;70.96;101623.50;2100148;28;20529;-72
2022/10/10 04:17:54;;;;;;;19.70;15.35;;;;;;;18.18;70.95;101624.34;2080327;28;20614;-73
2022/10/10 04:19:18;;;;;;;20.42;16.75;;;;;;;18.18;70.87;101627.03;2094618;28;20106;-73
2022/10/10 04:20:41;;;;;;;16.23;13.50;;;;;;;18.17;70.73;101627.94;2094709;28;20140;-73
2022/10/10 04:22:04;;;;;;;16.75;12.43;;;;;;;18.18;70.73;101628.84;2090091;28;20504;-73
2022/10/10 04:23:27;;;;;;;16.17;11.00;;;;;;;18.18;70.95;101629.69;2084352;28;20045;-73
2022/10/10 04:24:48;;;;;;;18.02;15.20;;;;;;;18.19;70.79;101631.50;2089620;28;20048;-73
2022/10/10 04:26:11;;;;;;;16.50;13.35;;;;;;;18.20;70.92;101627.94;2093416;28;20040;-73
2022/10/10 04:27:32;;;;;;;14.65;11.77;;;;;;;18.21;70.96;101635.06;2085190;28;20733;-73
2022/10/10 04:28:55;;;;;;;15.02;12.30;;;;;;;18.20;70.97;101638.63;2079580;28;20061;-72
2022/10/10 04:30:16;;;;;;;28.77;19.67;;;;;;;18.23;70.99;101632.41;2088200;28;20500;-72
2022/10/10 04:31:39;;;;;;;18.95;14.15;;;;;;;18.25;71.00;101641.28;2075476;28;20235;-72
2022/10/10 04:33:01;;;;;;;13.52;10.90;;;;;;;18.26;70.95;101635.03;2087174;28;20055;-72
2022/10/10 04:34:25;;;;;;;13.90;10.88;;;;;;;18.28;70.94;101635.94;2080411;28;20048;-72
2022/10/10 04:35:49;;;;;;;10.05;7.00;;;;;;;18.28;70.82;101639.50;2089326;28;20147;-73
2022/10/10 04:37:11;;;;;;;16.33;9.20;;;;;;;18.31;71.07;101643.97;2093914;28;20049;-72
2022/10/10 04:38:34;;;;;;;11.05;7.70;;;;;;;18.33;71.17;101650.19;2083386;28;20057;-72
2022/10/10 04:39:56;;;;;;;8.40;6.40;;;;;;;18.37;71.05;101648.41;2084238;28;20540;-72
2022/10/10 04:41:19;;;;;;;11.48;7.38;;;;;;;18.39;71.02;101650.16;2089447;28;20040;-73
2022/10/10 04:42:41;;;;;;;12.77;8.15;;;;;;;18.42;71.08;101643.94;2094738;28;20173;-73
2022/10/10 04:44:04;;;;;;;13.98;9.63;;;;;;;18.45;70.85;101643.91;2083106;28;20143;-73
2022/10/10 04:45:26;;;;;;;13.00;9.10;;;;;;;18.48;71.00;101649.25;2087370;28;20037;-72
2022/10/10 04:46:48;;;;;;;14.73;9.45;;;;;;;18.50;70.97;101652.84;2089391;28;20052;-72
2022/10/10 04:48:10;;;;;;;11.23;7.63;;;;;;;18.52;70.87;101643.00;2075947;28;20155;-73
2022/10/10 04:49:34;;;;;;;16.63;10.77;;;;;;;18.54;70.97;101650.13;2086909;28;20431;-73
2022/10/10 04:50:57;;;;;;;14.25;10.43;;;;;;;18.56;70.70;101653.75;2092535;28;20056;-73
2022/10/10 04:52:20;;;;;;;11.82;6.47;;;;;;;18.58;70.84;101649.25;2076276;28;20049;-72
2022/10/10 04:53:42;;;;;;;11.63;9.07;;;;;;;18.62;70.86;101650.16;2079459;28;20048;-73
2022/10/10 04:55:04;;;;;;;13.68;9.43;;;;;;;18.69;70.97;101657.25;2087245;28;20110;-73
2022/10/10 04:56:28;;;;;;;9.50;5.70;;;;;;;18.79;71.19;101658.09;2086981;28;20155;-73
2022/10/10 04:57:52;;;;;;;7.88;4.95;;;;;;;18.93;71.43;101650.91;2099228;28;20059;-73
2022/10/10 04:59:15;;;;;;;10.10;6.18;;;;;;;19.06;71.14;101656.22;2095866;28;20147;-72
2022/10/10 05:00:39;;;;;;;11.55;6.20;;;;;;;19.22;71.03;101662.38;2100069;28;20051;-73
2022/10/10 05:02:00;;;;;;;12.63;6.38;;;;;;;19.32;71.06;101664.09;2095066;28;20119;-72
2022/10/10 05:03:24;;;;;;;8.80;4.90;;;;;;;19.46;70.82;101664.94;2095390;28;20059;-72
2022/10/10 05:04:51;;;;;;;8.80;5.28;;;;;;;19.59;70.72;101663.06;2100693;28;20036;-73
2022/10/10 05:06:12;;;;;;;10.23;5.03;;;;;;;19.72;70.39;101667.44;2086141;28;20048;-73
2022/10/10 05:07:35;;;;;;;8.20;5.00;;;;;;;19.85;69.77;101670.91;2089326;28;20391;-73
2022/10/10 05:08:58;;;;;;;10.10;5.20;;;;;;;19.98;69.42;101667.22;2098878;28;20047;-73
2022/10/10 05:10:19;;;;;;;8.48;4.55;;;;;;;20.11;69.46;101668.00;2087385;28;20056;-73
2022/10/10 05:11:42;;;;;;;9.00;4.88;;;;;;;20.19;68.79;101668.84;2082711;28;20048;-73
2022/10/10 05:13:05;;;;;;;10.45;4.38;;;;;;;20.24;68.22;101669.66;2089915;28;20074;-73
2022/10/10 05:14:26;;;;;;;11.57;4.45;;;;;;;20.35;68.18;101672.31;2091589;28;20040;-72
2022/10/10 05:15:51;;;;;;;7.22;4.45;;;;;;;20.44;67.84;101669.50;2093302;28;20170;-72
2022/10/10 05:17:14;;;;;;;8.38;4.32;;;;;;;20.52;67.56;101670.31;2093543;28;20049;-73
2022/10/10 05:18:37;;;;;;;7.43;4.85;;;;;;;20.59;67.09;101678.28;2093490;28;20093;-73
2022/10/10 05:20:01;;;;;;;9.60;5.55;;;;;;;20.71;66.98;101673.69;2084004;28;20045;-73
2022/10/10 05:21:23;;;;;;;9.55;6.22;;;;;;;20.74;66.72;101676.34;2084668;28;20118;-73
2022/10/10 05:22:45;;;;;;;13.15;6.03;;;;;;;20.80;66.21;101677.16;2084316;28;20408;-73
2022/10/10 05:24:07;;;;;;;10.55;5.65;;;;;;;20.90;65.98;101675.25;2091119;28;20603;-73
2022/10/10 05:25:29;;;;;;;9.27;4.75;;;;;;;21.04;65.94;101678.66;2092685;28;20136;-73
2022/10/10 05:26:54;;;;;;;7.40;4.88;;;;;;;21.17;65.71;101676.72;2094499;28;20430;-73
2022/10/10 05:28:17;;;;;;;8.30;4.47;;;;;;;21.24;65.44;101682.00;2086863;28;20067;-73
2022/10/10 05:29:39;;;;;;;6.35;4.43;;;;;;;21.30;64.97;101684.59;2092418;28;20056;-72
2022/10/10 05:31:01;;;;;;;10.88;5.10;;;;;;;21.43;64.70;101691.56;2087315;28;20149;-73
2022/10/10 05:32:23;;;;;;;6.93;3.42;;;;;;;21.62;64.58;101685.91;2081582;28;20041;-73
2022/10/10 05:33:46;;;;;;;7.07;3.80;;;;;;;21.81;64.14;101690.09;2084916;28;20041;-73
2022/10/10 05:35:13;;;;;;;5.85;3.53;;;;;;;21.95;63.62;101690.78;2082604;28;20477;-73
2022/10/10 05:36:36;;;;;;;6.55;3.60;;;;;;;22.05;63.32;101692.44;2097500;28;20062;-74
2022/10/10 05:37:57;;;;;;;6.13;3.53;;;;;;;22.08;62.96;101697.75;2085564;28;20083;-73
2022/10/10 05:39:20;;;;;;;5.70;3.38;;;;;;;22.15;62.81;101701.22;2090399;28;20116;-73
2022/10/10 05:40:42;;;;;;;9.43;3.38;;;;;;;22.22;62.59;101697.53;2092495;28;20044;-73
2022/10/10 05:42:06;;;;;;;6.03;3.47;;;;;;;22.21;62.21;101695.75;2088185;28;20060;-73
2022/10/10 05:43:28;;;;;;;7.60;3.50;;;;;;;22.15;62.02;101703.91;2092496;28;20047;-73
2022/10/10 05:44:49;;;;;;;6.03;3.17;;;;;;;22.07;61.99;101704.03;2092851;28;20052;-71
2022/10/10 05:46:12;;;;;;;10.43;3.97;;;;;;;22.04;62.15;101703.22;2086652;28;20458;-71
2022/10/10 05:47:33;;;;;;;13.13;3.80;;;;;;;22.01;62.18;101700.56;2086228;28;20149;-71
2022/10/10 05:48:56;;;;;;;6.22;3.33;;;;;;;21.92;62.18;101706.97;2086207;28;20037;-71
2022/10/10 05:50:28;;;;;;;4.47;3.00;;;;;;;21.85;62.14;101705.28;2085467;28;20144;-71
2022/10/10 05:51:52;;;;;;;6.22;3.42;;;;;;;21.78;62.37;101706.31;2085424;28;20049;-71
2022/10/10 05:53:14;;;;;;;10.50;3.72;;;;;;;21.80;62.60;101707.13;2084176;28;20049;-71
2022/10/10 05:54:37;;;;;;;7.93;4.10;;;;;;;21.99;62.82;101710.50;2097970;28;20078;-71
2022/10/10 05:56:00;;;;;;;6.50;3.20;;;;;;;22.16;62.54;101706.59;2096024;28;20066;-71
2022/10/10 05:57:22;;;;;;;7.10;3.13;;;;;;;22.37;62.19;101707.13;2086462;28;20061;-71
2022/10/10 05:58:44;;;;;;;7.65;3.35;;;;;;;22.55;62.07;101712.19;2091383;28;20544;-71
2022/10/10 06:00:08;;;;;;;7.10;3.40;;;;;;;22.60;61.46;101716.56;2094214;28;20040;-71
2022/10/10 06:01:30;;;;;;;7.63;3.47;;;;;;;22.57;61.27;101715.75;2097228;28;20109;-72
2022/10/10 06:02:52;;;;;;;7.05;3.10;;;;;;;22.50;61.10;101714.06;2084991;28;20041;-71
2022/10/10 06:04:15;;;;;;;5.60;3.08;;;;;;;22.50;61.29;101714.06;2091245;28;20071;-71
2022/10/10 06:05:39;;;;;;;8.02;3.15;;;;;;;22.63;61.47;101718.31;2100734;28;20196;-71
2022/10/10 06:07:01;;;;;;;8.82;2.88;;;;;;;22.64;61.05;101720.09;2085969;28;20045;-71
2022/10/10 06:08:24;;;;;;;7.50;3.17;;;;;;;22.60;60.77;101719.25;2093190;28;20049;-71
2022/10/10 06:09:46;;;;;;;7.38;2.75;;;;;;;22.56;60.69;101719.34;2085306;28;20041;-71
2022/10/10 06:11:09;;;;;;;4.47;2.70;;;;;;;22.69;60.63;101717.31;2100755;28;20040;-71
2022/10/10 06:12:31;;;;;;;5.70;3.13;;;;;;;22.90;60.02;101728.59;2095639;28;20048;-71
2022/10/10 06:13:54;;;;;;;7.97;3.47;;;;;;;23.13;59.52;101724.53;2082076;28;20054;-72
2022/10/10 06:15:17;;;;;;;3.97;2.70;;;;;;;23.38;59.42;101723.06;2085658;28;20056;-71
2022/10/10 06:16:41;;;;;;;6.18;2.75;;;;;;;23.60;59.01;101719.03;2093321;28;20090;-71
2022/10/10 06:18:04;;;;;;;6.45;2.72;;;;;;;23.71;58.72;101722.34;2091889;28;20598;-71
2022/10/10 06:19:26;;;;;;;9.07;3.15;;;;;;;23.90;58.47;101730.00;2089924;28;20101;-72
2022/10/10 06:20:51;;;;;;;7.82;2.85;;;;;;;24.10;58.22;101731.28;2093508;28;20492;-72
2022/10/10 06:22:12;;;;;;;7.93;2.83;;;;;;;24.11;58.12;101733.06;2091869;28;20431;-71
2022/10/10 06:23:35;;;;;;;8.55;2.97;;;;;;;23.98;58.13;101728.00;2094528;28;20044;-72
2022/10/10 06:24:56;;;;;;;4.80;3.05;;;;;;;23.81;58.35;101731.13;2101543;28;20052;-71
2022/10/10 06:26:19;;;;;;;5.75;2.90;;;;;;;23.67;58.31;101733.25;2097156;28;20048;-71
2022/10/10 06:27:42;;;;;;;6.35;2.97;;;;;;;23.55;58.58;101730.84;2096026;28;20104;-71
2022/10/10 06:29:06;;;;;;;6.18;2.80;;;;;;;23.61;59.06;101731.59;2097270;28;20049;-71